sensor_id;sensor_type;location;lat;lon;timestamp;pressure;altitude;pressure_sealevel;temperature;humidity
3464;BME280;3551;41.578;24.706;2023-04-27T00:00:30;90513.91;;;9.01;71.15
3464;BME280;3551;41.578;24.706;2023-04-27T00:02:57;90518.28;;;9.18;73.14
3464;BME280;3551;41.578;24.706;2023-04-27T00:05:24;90514.78;;;9.25;70.95
3464;BME280;3551;41.578;24.706;2023-04-27T00:07:50;90518.25;;;9.22;74.15
3464;BME280;3551;41.578;24.706;2023-04-27T00:10:18;90521.34;;;9.17;76.43
3464;BME280;3551;41.578;24.706;2023-04-27T00:12:45;90519.25;;;9.01;75.92
3464;BME280;3551;41.578;24.706;2023-04-27T00:15:12;90522.22;;;9.07;72.57
3464;BME280;3551;41.578;24.706;2023-04-27T00:17:38;90519.91;;;9.09;73.53
3464;BME280;3551;41.578;24.706;2023-04-27T00:20:05;90523.66;;;9.15;75.09
3464;BME280;3551;41.578;24.706;2023-04-27T00:22:36;90513.16;;;9.00;77.01
3464;BME280;3551;41.578;24.706;2023-04-27T00:25:02;90522.75;;;8.91;75.13
3464;BME280;3551;41.578;24.706;2023-04-27T00:27:31;90516.16;;;9.02;74.04
3464;BME280;3551;41.578;24.706;2023-04-27T00:29:57;90518.34;;;9.11;73.14
3464;BME280;3551;41.578;24.706;2023-04-27T00:32:24;90520.81;;;8.95;74.71
3464;BME280;3551;41.578;24.706;2023-04-27T00:34:51;90526.13;;;8.98;75.07
3464;BME280;3551;41.578;24.706;2023-04-27T00:37:17;90527.94;;;9.05;76.57
3464;BME280;3551;41.578;24.706;2023-04-27T00:39:44;90517.44;;;8.91;77.43
3464;BME280;3551;41.578;24.706;2023-04-27T00:42:11;90517.19;;;9.16;78.20
3464;BME280;3551;41.578;24.706;2023-04-27T00:44:41;90528.50;;;8.89;78.08
3464;BME280;3551;41.578;24.706;2023-04-27T00:47:08;90524.06;;;8.76;78.59
3464;BME280;3551;41.578;24.706;2023-04-27T00:49:36;90533.22;;;8.75;78.34
3464;BME280;3551;41.578;24.706;2023-04-27T00:52:03;90520.13;;;8.87;77.09
3464;BME280;3551;41.578;24.706;2023-04-27T00:54:29;90522.25;;;9.03;77.93
3464;BME280;3551;41.578;24.706;2023-04-27T00:56:56;90521.38;;;8.76;80.03
3464;BME280;3551;41.578;24.706;2023-04-27T00:59:24;90518.06;;;8.65;78.29
3464;BME280;3551;41.578;24.706;2023-04-27T01:01:53;90527.50;;;8.73;79.27
3464;BME280;3551;41.578;24.706;2023-04-27T01:04:20;90525.38;;;8.57;80.82
3464;BME280;3551;41.578;24.706;2023-04-27T01:06:47;90525.38;;;8.57;82.18
3464;BME280;3551;41.578;24.706;2023-04-27T01:09:14;90530.16;;;8.76;80.30
3464;BME280;3551;41.578;24.706;2023-04-27T01:11:43;90531.31;;;8.75;76.18
3464;BME280;3551;41.578;24.706;2023-04-27T01:14:10;90522.13;;;8.80;80.02
3464;BME280;3551;41.578;24.706;2023-04-27T01:16:37;90527.34;;;8.90;73.59
3464;BME280;3551;41.578;24.706;2023-04-27T01:19:06;90537.38;;;8.76;77.07
3464;BME280;3551;41.578;24.706;2023-04-27T01:21:33;90523.22;;;8.82;76.21
3464;BME280;3551;41.578;24.706;2023-04-27T01:24:02;90530.00;;;8.90;74.73
3464;BME280;3551;41.578;24.706;2023-04-27T01:26:29;90525.88;;;8.86;76.40
3464;BME280;3551;41.578;24.706;2023-04-27T01:28:55;90532.81;;;8.76;80.08
3464;BME280;3551;41.578;24.706;2023-04-27T01:31:22;90537.31;;;8.83;78.53
3464;BME280;3551;41.578;24.706;2023-04-27T01:33:49;90533.34;;;9.01;78.36
3464;BME280;3551;41.578;24.706;2023-04-27T01:36:15;90527.28;;;8.97;75.28
3464;BME280;3551;41.578;24.706;2023-04-27T01:38:42;90534.53;;;8.93;73.86
3464;BME280;3551;41.578;24.706;2023-04-27T01:41:10;90535.00;;;8.85;77.57
3464;BME280;3551;41.578;24.706;2023-04-27T01:43:37;90552.75;;;8.61;72.48
3464;BME280;3551;41.578;24.706;2023-04-27T01:46:04;90539.84;;;8.56;78.80
3464;BME280;3551;41.578;24.706;2023-04-27T01:48:31;90556.94;;;8.62;77.38
3464;BME280;3551;41.578;24.706;2023-04-27T01:50:57;90546.97;;;8.70;79.71
3464;BME280;3551;41.578;24.706;2023-04-27T01:53:24;90557.09;;;8.85;78.27
3464;BME280;3551;41.578;24.706;2023-04-27T01:55:50;90553.66;;;8.85;76.93
3464;BME280;3551;41.578;24.706;2023-04-27T01:58:19;90552.91;;;8.84;79.06
3464;BME280;3551;41.578;24.706;2023-04-27T02:00:45;90552.06;;;8.94;79.16
3464;BME280;3551;41.578;24.706;2023-04-27T02:03:12;90547.03;;;9.03;71.29
3464;BME280;3551;41.578;24.706;2023-04-27T02:05:39;90549.56;;;9.14;70.14
3464;BME280;3551;41.578;24.706;2023-04-27T02:08:05;90554.19;;;9.10;72.76
3464;BME280;3551;41.578;24.706;2023-04-27T02:10:33;90550.31;;;9.18;74.22
3464;BME280;3551;41.578;24.706;2023-04-27T02:13:00;90557.16;;;9.19;75.31
3464;BME280;3551;41.578;24.706;2023-04-27T02:15:28;90557.97;;;9.13;74.70
3464;BME280;3551;41.578;24.706;2023-04-27T02:17:55;90569.34;;;8.79;75.75
3464;BME280;3551;41.578;24.706;2023-04-27T02:20:22;90557.88;;;8.86;75.69
3464;BME280;3551;41.578;24.706;2023-04-27T02:22:49;90565.00;;;8.96;75.04
3464;BME280;3551;41.578;24.706;2023-04-27T02:25:17;90557.66;;;8.66;73.88
3464;BME280;3551;41.578;24.706;2023-04-27T02:27:44;90565.84;;;8.86;74.79
3464;BME280;3551;41.578;24.706;2023-04-27T02:30:11;90567.41;;;8.83;76.14
3464;BME280;3551;41.578;24.706;2023-04-27T02:32:39;90555.47;;;8.58;76.20
3464;BME280;3551;41.578;24.706;2023-04-27T02:35:07;90556.91;;;8.66;70.56
3464;BME280;3551;41.578;24.706;2023-04-27T02:37:34;90564.94;;;8.62;75.46
3464;BME280;3551;41.578;24.706;2023-04-27T02:40:01;90572.19;;;8.58;77.21
3464;BME280;3551;41.578;24.706;2023-04-27T02:42:28;90560.47;;;8.52;75.41
3464;BME280;3551;41.578;24.706;2023-04-27T02:44:55;90560.34;;;8.66;74.24
3464;BME280;3551;41.578;24.706;2023-04-27T02:47:21;90562.38;;;8.48;77.62
3464;BME280;3551;41.578;24.706;2023-04-27T02:49:50;90568.72;;;8.65;77.10
3464;BME280;3551;41.578;24.706;2023-04-27T02:52:17;90574.66;;;8.79;76.18
3464;BME280;3551;41.578;24.706;2023-04-27T02:54:43;90570.28;;;8.99;75.84
3464;BME280;3551;41.578;24.706;2023-04-27T02:57:10;90585.63;;;8.88;75.95
3464;BME280;3551;41.578;24.706;2023-04-27T02:59:37;90591.13;;;9.12;74.40
3464;BME280;3551;41.578;24.706;2023-04-27T03:02:03;90584.50;;;8.89;70.36
3464;BME280;3551;41.578;24.706;2023-04-27T03:04:30;90594.16;;;8.73;69.90
3464;BME280;3551;41.578;24.706;2023-04-27T03:06:58;90592.28;;;8.70;70.53
3464;BME280;3551;41.578;24.706;2023-04-27T03:09:25;90588.97;;;7.93;72.95
3464;BME280;3551;41.578;24.706;2023-04-27T03:11:51;90590.38;;;8.12;74.39
3464;BME280;3551;41.578;24.706;2023-04-27T03:14:18;90597.94;;;8.20;74.51
3464;BME280;3551;41.578;24.706;2023-04-27T03:16:44;90596.69;;;8.42;71.23
3464;BME280;3551;41.578;24.706;2023-04-27T03:19:11;90602.94;;;8.70;74.12
3464;BME280;3551;41.578;24.706;2023-04-27T03:21:38;90603.56;;;8.84;75.90
3464;BME280;3551;41.578;24.706;2023-04-27T03:24:06;90607.84;;;8.78;71.76
3464;BME280;3551;41.578;24.706;2023-04-27T03:26:33;90604.88;;;8.07;72.23
3464;BME280;3551;41.578;24.706;2023-04-27T03:28:59;90606.28;;;8.29;75.12
3464;BME280;3551;41.578;24.706;2023-04-27T03:31:26;90604.88;;;8.04;73.02
3464;BME280;3551;41.578;24.706;2023-04-27T03:33:53;90612.78;;;8.18;74.40
3464;BME280;3551;41.578;24.706;2023-04-27T03:36:19;90613.56;;;8.18;73.73
3464;BME280;3551;41.578;24.706;2023-04-27T03:38:46;90620.00;;;8.28;73.69
3464;BME280;3551;41.578;24.706;2023-04-27T03:41:14;90613.69;;;8.56;72.08
3464;BME280;3551;41.578;24.706;2023-04-27T03:43:41;90618.59;;;8.64;75.04
3464;BME280;3551;41.578;24.706;2023-04-27T03:46:07;90623.00;;;8.30;74.84
3464;BME280;3551;41.578;24.706;2023-04-27T03:48:34;90622.22;;;8.36;74.70
3464;BME280;3551;41.578;24.706;2023-04-27T03:51:01;90621.09;;;8.34;73.00
3464;BME280;3551;41.578;24.706;2023-04-27T03:53:28;90626.00;;;8.42;70.58
3464;BME280;3551;41.578;24.706;2023-04-27T03:55:54;90626.66;;;8.57;71.04
3464;BME280;3551;41.578;24.706;2023-04-27T03:58:22;90644.75;;;8.80;70.00
3464;BME280;3551;41.578;24.706;2023-04-27T04:00:49;90639.00;;;8.85;68.69
3464;BME280;3551;41.578;24.706;2023-04-27T04:03:16;90629.59;;;8.11;70.91
3464;BME280;3551;41.578;24.706;2023-04-27T04:05:43;90640.34;;;7.90;71.69
3464;BME280;3551;41.578;24.706;2023-04-27T04:08:11;90644.94;;;7.79;73.27
3464;BME280;3551;41.578;24.706;2023-04-27T04:10:38;90645.88;;;8.20;71.87
3464;BME280;3551;41.578;24.706;2023-04-27T04:13:05;90653.72;;;8.52;72.69
3464;BME280;3551;41.578;24.706;2023-04-27T04:15:33;90658.97;;;8.63;71.26
3464;BME280;3551;41.578;24.706;2023-04-27T04:18:00;90656.31;;;8.59;72.12
3464;BME280;3551;41.578;24.706;2023-04-27T04:20:26;90664.66;;;8.61;70.81
3464;BME280;3551;41.578;24.706;2023-04-27T04:22:53;90683.63;;;8.77;70.87
3464;BME280;3551;41.578;24.706;2023-04-27T04:25:20;90673.53;;;8.99;71.50
3464;BME280;3551;41.578;24.706;2023-04-27T04:27:46;90673.91;;;9.01;70.21
3464;BME280;3551;41.578;24.706;2023-04-27T04:30:13;90692.06;;;9.17;69.30
3464;BME280;3551;41.578;24.706;2023-04-27T04:32:42;90681.47;;;9.10;68.89
3464;BME280;3551;41.578;24.706;2023-04-27T04:35:09;90686.31;;;9.22;70.67
3464;BME280;3551;41.578;24.706;2023-04-27T04:37:36;90692.22;;;9.40;70.83
3464;BME280;3551;41.578;24.706;2023-04-27T04:40:03;90689.78;;;9.59;68.32
3464;BME280;3551;41.578;24.706;2023-04-27T04:42:33;90694.53;;;10.12;71.04
3464;BME280;3551;41.578;24.706;2023-04-27T04:45:00;90702.97;;;10.71;68.30
3464;BME280;3551;41.578;24.706;2023-04-27T04:47:27;90696.53;;;11.42;64.26
3464;BME280;3551;41.578;24.706;2023-04-27T04:49:57;90702.97;;;11.91;62.66
3464;BME280;3551;41.578;24.706;2023-04-27T04:52:24;90699.41;;;12.57;60.00
3464;BME280;3551;41.578;24.706;2023-04-27T04:54:50;90703.72;;;12.70;59.70
3464;BME280;3551;41.578;24.706;2023-04-27T04:57:17;90700.72;;;12.84;60.99
3464;BME280;3551;41.578;24.706;2023-04-27T04:59:44;90699.28;;;12.44;60.15
3464;BME280;3551;41.578;24.706;2023-04-27T05:02:10;90719.44;;;12.13;59.62
3464;BME280;3551;41.578;24.706;2023-04-27T05:04:37;90717.50;;;12.53;60.19
3464;BME280;3551;41.578;24.706;2023-04-27T05:07:05;90717.28;;;12.63;60.96
3464;BME280;3551;41.578;24.706;2023-04-27T05:09:31;90723.78;;;12.46;59.69
3464;BME280;3551;41.578;24.706;2023-04-27T05:12:00;90727.50;;;12.88;58.07
3464;BME280;3551;41.578;24.706;2023-04-27T05:14:27;90722.03;;;12.56;59.93
3464;BME280;3551;41.578;24.706;2023-04-27T05:16:53;90735.19;;;12.50;60.03
3464;BME280;3551;41.578;24.706;2023-04-27T05:19:20;90731.72;;;12.50;59.33
3464;BME280;3551;41.578;24.706;2023-04-27T05:21:47;90737.28;;;12.78;58.14
3464;BME280;3551;41.578;24.706;2023-04-27T05:24:15;90733.28;;;12.86;56.55
3464;BME280;3551;41.578;24.706;2023-04-27T05:26:42;90733.66;;;12.69;58.36
3464;BME280;3551;41.578;24.706;2023-04-27T05:29:08;90732.38;;;12.57;59.76
3464;BME280;3551;41.578;24.706;2023-04-27T05:31:35;90740.69;;;12.43;60.43
3464;BME280;3551;41.578;24.706;2023-04-27T05:34:02;90731.81;;;12.26;58.69
3464;BME280;3551;41.578;24.706;2023-04-27T05:36:28;90742.00;;;12.55;60.04
3464;BME280;3551;41.578;24.706;2023-04-27T05:38:55;90741.91;;;12.38;59.38
3464;BME280;3551;41.578;24.706;2023-04-27T05:41:24;90742.66;;;12.19;59.83
3464;BME280;3551;41.578;24.706;2023-04-27T05:43:55;90744.16;;;12.20;60.17
3464;BME280;3551;41.578;24.706;2023-04-27T05:46:23;90743.28;;;12.27;59.25
3464;BME280;3551;41.578;24.706;2023-04-27T05:48:49;90732.34;;;11.98;61.90
3464;BME280;3551;41.578;24.706;2023-04-27T05:51:16;90737.38;;;11.73;61.46
3464;BME280;3551;41.578;24.706;2023-04-27T05:53:43;90752.38;;;11.90;60.35
3464;BME280;3551;41.578;24.706;2023-04-27T05:56:09;90755.72;;;11.74;60.72
3464;BME280;3551;41.578;24.706;2023-04-27T05:58:38;90752.56;;;11.79;61.44
3464;BME280;3551;41.578;24.706;2023-04-27T06:01:06;90759.31;;;11.88;59.32
3464;BME280;3551;41.578;24.706;2023-04-27T06:03:33;90764.88;;;11.97;62.32
3464;BME280;3551;41.578;24.706;2023-04-27T06:06:00;90762.69;;;11.92;61.54
3464;BME280;3551;41.578;24.706;2023-04-27T06:08:27;90757.44;;;12.27;61.62
3464;BME280;3551;41.578;24.706;2023-04-27T06:10:53;90764.13;;;12.19;59.45
3464;BME280;3551;41.578;24.706;2023-04-27T06:13:20;90762.25;;;12.56;58.41
3464;BME280;3551;41.578;24.706;2023-04-27T06:15:49;90757.91;;;12.81;59.66
3464;BME280;3551;41.578;24.706;2023-04-27T06:18:16;90759.28;;;12.89;58.13
3464;BME280;3551;41.578;24.706;2023-04-27T06:20:42;90767.78;;;12.49;56.87
3464;BME280;3551;41.578;24.706;2023-04-27T06:23:09;90767.22;;;12.77;55.66
3464;BME280;3551;41.578;24.706;2023-04-27T06:25:35;90772.81;;;13.02;57.57
3464;BME280;3551;41.578;24.706;2023-04-27T06:28:04;90774.28;;;13.42;57.15
3464;BME280;3551;41.578;24.706;2023-04-27T06:30:31;90775.31;;;12.93;56.89
3464;BME280;3551;41.578;24.706;2023-04-27T06:32:59;90775.66;;;12.95;57.79
3464;BME280;3551;41.578;24.706;2023-04-27T06:35:26;90775.19;;;12.41;59.85
3464;BME280;3551;41.578;24.706;2023-04-27T06:37:53;90783.59;;;12.00;62.69
3464;BME280;3551;41.578;24.706;2023-04-27T06:40:23;90774.72;;;12.03;59.92
3464;BME280;3551;41.578;24.706;2023-04-27T06:42:49;90778.56;;;12.25;60.15
3464;BME280;3551;41.578;24.706;2023-04-27T06:45:16;90780.53;;;12.21;59.09
3464;BME280;3551;41.578;24.706;2023-04-27T06:47:43;90790.59;;;11.94;59.51
3464;BME280;3551;41.578;24.706;2023-04-27T06:50:11;90793.41;;;12.30;59.82
3464;BME280;3551;41.578;24.706;2023-04-27T06:52:38;90798.75;;;12.30;61.18
3464;BME280;3551;41.578;24.706;2023-04-27T06:55:06;90796.09;;;12.50;59.13
3464;BME280;3551;41.578;24.706;2023-04-27T06:57:33;90804.28;;;12.23;57.13
3464;BME280;3551;41.578;24.706;2023-04-27T06:59:59;90799.97;;;12.49;59.27
3464;BME280;3551;41.578;24.706;2023-04-27T07:02:26;90806.97;;;12.82;57.02
3464;BME280;3551;41.578;24.706;2023-04-27T07:04:53;90808.91;;;12.62;59.69
3464;BME280;3551;41.578;24.706;2023-04-27T07:07:21;90808.97;;;12.58;59.11
3464;BME280;3551;41.578;24.706;2023-04-27T07:09:47;90802.00;;;13.20;58.14
3464;BME280;3551;41.578;24.706;2023-04-27T07:12:14;90808.47;;;13.03;57.96
3464;BME280;3551;41.578;24.706;2023-04-27T07:14:41;90815.66;;;13.45;56.80
3464;BME280;3551;41.578;24.706;2023-04-27T07:17:08;90815.31;;;13.43;55.74
3464;BME280;3551;41.578;24.706;2023-04-27T07:19:35;90813.94;;;13.19;56.67
3464;BME280;3551;41.578;24.706;2023-04-27T07:22:02;90814.56;;;12.87;56.98
3464;BME280;3551;41.578;24.706;2023-04-27T07:24:30;90816.13;;;12.84;58.55
3464;BME280;3551;41.578;24.706;2023-04-27T07:26:57;90811.09;;;12.86;57.17
3464;BME280;3551;41.578;24.706;2023-04-27T07:29:23;90823.84;;;12.82;58.18
3464;BME280;3551;41.578;24.706;2023-04-27T07:31:52;90814.97;;;12.66;56.15
3464;BME280;3551;41.578;24.706;2023-04-27T07:34:22;90817.56;;;12.89;57.56
3464;BME280;3551;41.578;24.706;2023-04-27T07:36:52;90818.19;;;12.96;55.03
3464;BME280;3551;41.578;24.706;2023-04-27T07:39:19;90811.44;;;13.08;55.93
3464;BME280;3551;41.578;24.706;2023-04-27T07:41:52;90810.38;;;13.58;53.37
3464;BME280;3551;41.578;24.706;2023-04-27T07:44:22;90809.47;;;13.64;56.17
3464;BME280;3551;41.578;24.706;2023-04-27T07:46:49;90810.41;;;13.22;56.29
3464;BME280;3551;41.578;24.706;2023-04-27T07:49:18;90806.78;;;13.12;56.76
3464;BME280;3551;41.578;24.706;2023-04-27T07:54:30;90807.59;;;12.70;57.29
3464;BME280;3551;41.578;24.706;2023-04-27T07:56:58;90816.28;;;12.58;57.94
3464;BME280;3551;41.578;24.706;2023-04-27T07:59:27;90817.56;;;13.09;58.48
3464;BME280;3551;41.578;24.706;2023-04-27T08:01:54;90818.47;;;13.22;56.05
3464;BME280;3551;41.578;24.706;2023-04-27T08:04:21;90820.19;;;13.12;56.10
3464;BME280;3551;41.578;24.706;2023-04-27T08:06:47;90817.72;;;13.21;58.14
3464;BME280;3551;41.578;24.706;2023-04-27T08:09:14;90820.41;;;13.02;57.59
3464;BME280;3551;41.578;24.706;2023-04-27T08:11:41;90817.56;;;12.89;57.84
3464;BME280;3551;41.578;24.706;2023-04-27T08:14:09;90823.84;;;12.63;59.25
3464;BME280;3551;41.578;24.706;2023-04-27T08:16:39;90820.19;;;12.73;57.67
3464;BME280;3551;41.578;24.706;2023-04-27T08:19:06;90817.38;;;12.60;58.18
3464;BME280;3551;41.578;24.706;2023-04-27T08:21:35;90820.38;;;12.62;57.00
3464;BME280;3551;41.578;24.706;2023-04-27T08:24:06;90820.44;;;12.59;60.25
3464;BME280;3551;41.578;24.706;2023-04-27T08:26:33;90817.03;;;12.78;60.24
3464;BME280;3551;41.578;24.706;2023-04-27T08:29:02;90818.72;;;12.88;58.11
3464;BME280;3551;41.578;24.706;2023-04-27T08:31:30;90805.84;;;12.99;54.48
3464;BME280;3551;41.578;24.706;2023-04-27T08:33:56;90810.56;;;12.95;57.82
3464;BME280;3551;41.578;24.706;2023-04-27T08:36:24;90810.63;;;13.11;59.48
3464;BME280;3551;41.578;24.706;2023-04-27T08:38:52;90819.97;;;13.59;56.46
3464;BME280;3551;41.578;24.706;2023-04-27T08:41:19;90811.22;;;13.87;57.01
3464;BME280;3551;41.578;24.706;2023-04-27T08:43:47;90811.69;;;14.30;54.84
3464;BME280;3551;41.578;24.706;2023-04-27T08:46:17;90805.84;;;14.19;54.25
3464;BME280;3551;41.578;24.706;2023-04-27T08:48:45;90811.31;;;14.16;53.92
3464;BME280;3551;41.578;24.706;2023-04-27T08:51:11;90811.56;;;14.21;53.63
3464;BME280;3551;41.578;24.706;2023-04-27T08:53:42;90810.72;;;13.76;56.09
3464;BME280;3551;41.578;24.706;2023-04-27T08:56:12;90816.72;;;13.83;56.87
3464;BME280;3551;41.578;24.706;2023-04-27T08:58:39;90814.59;;;13.75;53.90
3464;BME280;3551;41.578;24.706;2023-04-27T09:01:06;90802.63;;;13.27;56.29
3464;BME280;3551;41.578;24.706;2023-04-27T09:03:33;90811.69;;;13.33;55.31
3464;BME280;3551;41.578;24.706;2023-04-27T09:06:01;90810.06;;;13.20;56.18
3464;BME280;3551;41.578;24.706;2023-04-27T09:08:28;90810.00;;;13.04;52.76
3464;BME280;3551;41.578;24.706;2023-04-27T09:10:55;90813.66;;;13.13;55.76
3464;BME280;3551;41.578;24.706;2023-04-27T09:13:22;90824.25;;;13.01;52.08
3464;BME280;3551;41.578;24.706;2023-04-27T09:15:49;90814.47;;;12.51;51.47
3464;BME280;3551;41.578;24.706;2023-04-27T09:18:16;90814.19;;;12.46;57.66
3464;BME280;3551;41.578;24.706;2023-04-27T09:20:44;90814.69;;;12.60;57.83
3464;BME280;3551;41.578;24.706;2023-04-27T09:23:21;90821.41;;;12.88;56.30
3464;BME280;3551;41.578;24.706;2023-04-27T09:25:50;90826.94;;;13.01;58.17
3464;BME280;3551;41.578;24.706;2023-04-27T09:28:17;90821.78;;;12.90;58.56
3464;BME280;3551;41.578;24.706;2023-04-27T09:30:49;90823.91;;;12.98;58.10
3464;BME280;3551;41.578;24.706;2023-04-27T09:33:20;90818.31;;;13.29;56.18
3464;BME280;3551;41.578;24.706;2023-04-27T09:35:47;90818.25;;;12.93;57.04
3464;BME280;3551;41.578;24.706;2023-04-27T09:38:16;90816.53;;;12.83;56.39
3464;BME280;3551;41.578;24.706;2023-04-27T09:40:43;90817.97;;;12.68;56.75
3464;BME280;3551;41.578;24.706;2023-04-27T09:43:10;90817.97;;;12.48;57.92
3464;BME280;3551;41.578;24.706;2023-04-27T09:45:37;90830.03;;;12.60;56.70
3464;BME280;3551;41.578;24.706;2023-04-27T09:48:05;90826.78;;;12.68;59.44
3464;BME280;3551;41.578;24.706;2023-04-27T09:50:33;90820.88;;;12.77;57.60
3464;BME280;3551;41.578;24.706;2023-04-27T09:53:00;90825.47;;;12.57;58.54
3464;BME280;3551;41.578;24.706;2023-04-27T09:55:29;90828.88;;;12.80;58.43
3464;BME280;3551;41.578;24.706;2023-04-27T09:58:01;90830.09;;;12.56;59.16
3464;BME280;3551;41.578;24.706;2023-04-27T10:00:37;90821.34;;;12.52;58.23
3464;BME280;3551;41.578;24.706;2023-04-27T10:03:13;90835.19;;;12.70;59.15
3464;BME280;3551;41.578;24.706;2023-04-27T10:06:06;90833.41;;;12.40;59.37
3464;BME280;3551;41.578;24.706;2023-04-27T10:08:46;90832.69;;;12.40;58.70
3464;BME280;3551;41.578;24.706;2023-04-27T10:11:16;90837.38;;;12.56;57.93
3464;BME280;3551;41.578;24.706;2023-04-27T10:13:50;90847.72;;;12.34;55.02
3464;BME280;3551;41.578;24.706;2023-04-27T10:16:18;90840.66;;;12.20;55.36
3464;BME280;3551;41.578;24.706;2023-04-27T10:18:50;90844.16;;;12.17;56.25
3464;BME280;3551;41.578;24.706;2023-04-27T10:21:17;90842.69;;;11.93;56.05
3464;BME280;3551;41.578;24.706;2023-04-27T10:23:47;90850.06;;;12.09;54.54
3464;BME280;3551;41.578;24.706;2023-04-27T10:26:22;90842.47;;;11.80;57.43
3464;BME280;3551;41.578;24.706;2023-04-27T10:28:55;90840.66;;;11.74;59.80
3464;BME280;3551;41.578;24.706;2023-04-27T10:31:25;90848.06;;;11.63;53.99
3464;BME280;3551;41.578;24.706;2023-04-27T10:33:52;90843.91;;;11.35;54.93
3464;BME280;3551;41.578;24.706;2023-04-27T10:36:19;90846.16;;;11.37;55.90
3464;BME280;3551;41.578;24.706;2023-04-27T10:38:46;90846.41;;;11.46;57.10
3464;BME280;3551;41.578;24.706;2023-04-27T10:41:22;90845.13;;;11.84;57.07
3464;BME280;3551;41.578;24.706;2023-04-27T10:44:12;90845.28;;;11.47;53.63
3464;BME280;3551;41.578;24.706;2023-04-27T10:46:48;90846.63;;;11.58;57.32
3464;BME280;3551;41.578;24.706;2023-04-27T10:49:15;90852.63;;;11.66;58.12
3464;BME280;3551;41.578;24.706;2023-04-27T10:51:41;90854.97;;;11.91;59.30
3464;BME280;3551;41.578;24.706;2023-04-27T10:54:08;90855.88;;;12.04;58.92
3464;BME280;3551;41.578;24.706;2023-04-27T10:56:37;90847.56;;;11.98;60.66
3464;BME280;3551;41.578;24.706;2023-04-27T10:59:04;90860.56;;;12.23;59.61
3464;BME280;3551;41.578;24.706;2023-04-27T11:01:31;90840.03;;;12.36;59.36
3464;BME280;3551;41.578;24.706;2023-04-27T11:03:59;90842.63;;;12.20;56.43
3464;BME280;3551;41.578;24.706;2023-04-27T11:06:26;90842.72;;;12.36;57.91
3464;BME280;3551;41.578;24.706;2023-04-27T11:08:54;90837.16;;;12.47;57.60
3464;BME280;3551;41.578;24.706;2023-04-27T11:11:23;90831.59;;;12.57;58.34
3464;BME280;3551;41.578;24.706;2023-04-27T11:13:54;90835.09;;;12.54;58.68
3464;BME280;3551;41.578;24.706;2023-04-27T11:16:22;90838.41;;;12.81;54.71
3464;BME280;3551;41.578;24.706;2023-04-27T11:18:48;90834.66;;;12.36;54.58
3464;BME280;3551;41.578;24.706;2023-04-27T11:21:15;90838.97;;;12.73;49.58
3464;BME280;3551;41.578;24.706;2023-04-27T11:23:43;90832.16;;;12.68;53.41
3464;BME280;3551;41.578;24.706;2023-04-27T11:26:09;90839.38;;;12.71;56.72
3464;BME280;3551;41.578;24.706;2023-04-27T11:28:37;90835.59;;;12.88;51.41
3464;BME280;3551;41.578;24.706;2023-04-27T11:31:05;90833.72;;;13.05;53.36
3464;BME280;3551;41.578;24.706;2023-04-27T11:33:32;90838.34;;;12.65;57.25
3464;BME280;3551;41.578;24.706;2023-04-27T11:35:59;90836.81;;;12.45;57.13
3464;BME280;3551;41.578;24.706;2023-04-27T11:38:31;90836.00;;;12.48;57.75
3464;BME280;3551;41.578;24.706;2023-04-27T11:40:58;90839.94;;;12.63;56.96
3464;BME280;3551;41.578;24.706;2023-04-27T11:43:25;90849.28;;;12.74;58.20
3464;BME280;3551;41.578;24.706;2023-04-27T11:45:52;90852.59;;;12.82;55.71
3464;BME280;3551;41.578;24.706;2023-04-27T11:48:21;90855.47;;;12.91;50.78
3464;BME280;3551;41.578;24.706;2023-04-27T11:50:48;90851.81;;;12.81;50.31
3464;BME280;3551;41.578;24.706;2023-04-27T11:53:15;90855.91;;;12.47;50.65
3464;BME280;3551;41.578;24.706;2023-04-27T11:55:42;90851.84;;;12.38;53.40
3464;BME280;3551;41.578;24.706;2023-04-27T11:58:12;90866.53;;;12.54;52.07
3464;BME280;3551;41.578;24.706;2023-04-27T12:00:39;90856.41;;;11.68;51.66
3464;BME280;3551;41.578;24.706;2023-04-27T12:03:06;90852.59;;;11.96;55.04
3464;BME280;3551;41.578;24.706;2023-04-27T12:05:34;90852.13;;;11.74;52.14
3464;BME280;3551;41.578;24.706;2023-04-27T12:08:00;90857.72;;;12.10;53.87
3464;BME280;3551;41.578;24.706;2023-04-27T12:10:27;90844.13;;;12.21;54.59
3464;BME280;3551;41.578;24.706;2023-04-27T12:12:54;90849.78;;;12.03;50.44
3464;BME280;3551;41.578;24.706;2023-04-27T12:15:20;90851.97;;;11.85;51.16
3464;BME280;3551;41.578;24.706;2023-04-27T12:17:47;90853.91;;;11.84;49.39
3464;BME280;3551;41.578;24.706;2023-04-27T12:20:14;90845.34;;;11.93;49.79
3464;BME280;3551;41.578;24.706;2023-04-27T12:22:42;90852.38;;;11.83;50.79
3464;BME280;3551;41.578;24.706;2023-04-27T12:25:08;90843.72;;;11.99;54.44
3464;BME280;3551;41.578;24.706;2023-04-27T12:27:35;90840.91;;;12.29;55.68
3464;BME280;3551;41.578;24.706;2023-04-27T12:30:02;90836.75;;;12.68;50.10
3464;BME280;3551;41.578;24.706;2023-04-27T12:32:29;90842.19;;;13.04;48.09
3464;BME280;3551;41.578;24.706;2023-04-27T12:34:56;90832.50;;;12.90;47.72
3464;BME280;3551;41.578;24.706;2023-04-27T12:37:22;90839.00;;;12.50;49.07
3464;BME280;3551;41.578;24.706;2023-04-27T12:39:50;90841.66;;;12.92;51.73
3464;BME280;3551;41.578;24.706;2023-04-27T12:42:17;90833.94;;;12.94;53.47
3464;BME280;3551;41.578;24.706;2023-04-27T12:44:48;90833.94;;;12.75;45.12
3464;BME280;3551;41.578;24.706;2023-04-27T12:47:15;90839.69;;;12.34;45.45
3464;BME280;3551;41.578;24.706;2023-04-27T12:49:42;90842.38;;;12.34;45.65
3464;BME280;3551;41.578;24.706;2023-04-27T12:52:09;90844.97;;;12.14;47.64
3464;BME280;3551;41.578;24.706;2023-04-27T12:54:35;90840.56;;;11.81;45.92
3464;BME280;3551;41.578;24.706;2023-04-27T12:57:03;90837.13;;;11.80;45.47
3464;BME280;3551;41.578;24.706;2023-04-27T12:59:31;90846.41;;;11.76;46.46
3464;BME280;3551;41.578;24.706;2023-04-27T13:01:58;90838.69;;;11.78;47.75
3464;BME280;3551;41.578;24.706;2023-04-27T13:04:26;90850.28;;;11.71;45.33
3464;BME280;3551;41.578;24.706;2023-04-27T13:06:53;90847.06;;;11.53;46.35
3464;BME280;3551;41.578;24.706;2023-04-27T13:09:20;90848.06;;;11.63;46.36
3464;BME280;3551;41.578;24.706;2023-04-27T13:11:46;90841.03;;;11.19;45.62
3464;BME280;3551;41.578;24.706;2023-04-27T13:14:15;90835.53;;;11.29;47.43
3464;BME280;3551;41.578;24.706;2023-04-27T13:16:41;90845.59;;;11.49;46.57
3464;BME280;3551;41.578;24.706;2023-04-27T13:19:08;90841.28;;;11.58;48.05